Terminal Aerodrome Forecast
Issued by NWS Charleston, WV

Current Version | Previous Version | Graphics & Text | Print | Product List | Glossary On
Versions: 1 2 3 4 5 6 7 8 9 10 11 12 13 14 15 16 17 18 19 20 21 22 23 24
000
FTUS41 KRLX 171700
TAFCRW
TAF
KCRW 171736Z 1718/1818 27008G15KT 6SM -SHSNDZ SCT010 OVC020
      TEMPO 1718/1720 5SM -SHSN BR BKN010
     FM172000 28008G16KT P6SM OVC020
     FM180200 27006KT P6SM OVC020
     FM181600 28005KT P6SM SCT025 BKN100=

USA.gov is the U.S. government's official web portal to all federal, state and local government web resources and services.